Chisholm Hibbing Airport
KHIB : now visible

Airfield :











YOU CAN JOIN US ON...

 
LOGIN :

Register | Disclaimer

   EN    FR    IT 

 









Legend :    VFR   Marginal VFR   IFR   Intensive IFR   Very Intensive IFR
Visi :
Ceiling :
>= 8 km
>= 3000ft
5 to 8 km
1000 to 3000 ft
1500m to 5 km
500 to 1000 ft
800 to 1500m
200 to 500 ft
< 800m
< 200 ft
Symbols :   Thunderstorms  Fog  Heavy snow  Heavy precipitations  Wind > 20 kt






- Airport Elevation : 1354 ft
- IATA code : HIB


KHIB - Chisholm Hibbing

CURRENT METAR :
  • 142053Z AUTO 32011KT 10SM CLR M16/M20 A2987 RMK AO2 SLP148 T11611200 53005

EXPIRED METARs :
  • 141953Z AUTO 31010KT 7SM FEW012 M16/M19 A2986 RMK AO2 SLP143 T11561194
  • 141939Z AUTO 32013KT 6SM HZ SCT012 M16/M19 A2986 RMK AO2 T11611194
  • 141853Z AUTO 31013KT 3SM BLSN BKN012 M16/M19 A2985 RMK AO2 SLP142 T11611194
  • 141840Z AUTO 32013KT 2SM BLSN BKN012 M16/M19 A2985 RMK AO2 T11611194
  • 141815Z AUTO 31013KT 3SM BLSN OVC014 M16/M19 A2986 RMK AO2 T11611194

TAF KHIB
Valid from the 14 at 18:00 until the 15 at 18:00 UTC


141739Z 1418/1518 33011G20KT 1SM -SN BLSN OVC014
TEMPO 1418/1420 3SM -SN BLSN
FM142000 34012G20KT P6SM SCT015
FM150000 34008KT P6SM SCT015
FM151500 22005KT P6SM BKN080



MET'MAP, your aeronautical weather chart ! - Copyright ORBIFLY December 2007 - Disclaimer

ORBIFLY MET'MAP TEAM :

Programming & Development : Alexandra Zaïnal
Concept & original design : Baudouin d'Aumeries
Assistance for programming : Marc-Olivier Méhu
Technical & hardware support : Manuel Goepfert

Contact : metmap@orbifly.com




SOURCES & CREDITS :

   NOAA       Earth
Advisory